Time;durP1;ratioP1;P1;durP2;ratioP2;P2;SDS_P1;SDS_P2;PMS_P1;PMS_P2;Temp;Humidity;BMP_temperature;BMP_pressure;BME280_temperature;BME280_humidity;BME280_pressure;Samples;Min_cycle;Max_cycle;Signal;HPM_P1;HPM_P2
2022/01/27 00:03:14;;;;;;;18.25;12.27;;;;;;;;;;5037243;28;20499;-74
2022/01/27 00:05:51;;;;;;;21.55;13.38;;;;;;;;;;5039202;28;20064;-74
2022/01/27 00:08:25;;;;;;;17.50;12.32;;;;;;;;;;5041317;28;20113;-73
2022/01/27 00:13:29;;;;;;;16.83;11.82;;;;;;;;;;5038375;28;20124;-73
2022/01/27 00:18:58;;;;;;;19.02;12.70;;;;;;;;;;4970257;28;20125;-74
2022/01/27 00:21:26;;;;;;;17.90;12.05;;;;;;;;;;4970939;28;20722;-73
2022/01/27 00:23:54;;;;;;;17.35;12.23;;;;;;;;;;4972860;28;20186;-75
2022/01/27 00:26:22;;;;;;;16.63;12.18;;;;;;;;;;4960019;28;20084;-74
2022/01/27 00:28:49;;;;;;;17.27;12.77;;;;;;;;;;4975867;28;20140;-73
2022/01/27 00:31:20;;;;;;;17.48;13.35;;;;;;;;;;4965821;28;20674;-75
2022/01/27 00:33:48;;;;;;;15.55;10.07;;;;;;;;;;4980070;28;20051;-74
2022/01/27 00:36:16;;;;;;;15.88;12.20;;;;;;;;;;4977799;28;20114;-73
2022/01/27 00:38:44;;;;;;;17.15;11.45;;;;;;;;;;4979352;28;20046;-73
2022/01/27 00:41:13;;;;;;;14.32;10.20;;;;;;;;;;4964503;28;20066;-73
2022/01/27 00:43:43;;;;;;;16.73;11.38;;;;;;;;;;4978033;28;20526;-75
2022/01/27 00:46:15;;;;;;;19.95;13.57;;;;;;;;;;4978290;28;20161;-73
2022/01/27 00:48:44;;;;;;;16.83;12.23;;;;;;;;;;4977618;28;20161;-74
2022/01/27 00:51:14;;;;;;;16.55;11.43;;;;;;;;;;4955828;28;20054;-74
2022/01/27 00:53:53;;;;;;;16.73;12.38;;;;;;;;;;4978917;28;20462;-74
2022/01/27 00:56:30;;;;;;;17.67;12.85;;;;;;;;;;5037972;28;20044;-74
2022/01/27 01:01:37;;;;;;;18.60;12.52;;;;;;;;;;5034599;28;20132;-75
2022/01/27 01:04:07;;;;;;;19.95;13.60;;;;;;;;;;5028519;28;20135;-74
2022/01/27 01:06:45;;;;;;;17.65;13.38;;;;;;;;;;5018524;28;20132;-73
2022/01/27 01:12:32;;;;;;;19.90;14.00;;;;;;;;;;5033378;28;20334;-73
2022/01/27 01:14:51;;;;;;;19.08;14.25;;;;;;;;;;5016617;28;20056;-74
2022/01/27 01:20:04;;;;;;;11.75;8.18;;;;;;;;;;5033056;28;20436;-74
2022/01/27 01:30:58;;;;;;;17.20;12.60;;;;;;;;;;5011891;28;20040;-75
2022/01/27 01:33:33;;;;;;;16.67;12.55;;;;;;;;;;5035590;28;20045;-75
2022/01/27 01:36:05;;;;;;;16.70;11.80;;;;;;;;;;5034550;28;20037;-74
2022/01/27 01:38:33;;;;;;;18.05;11.50;;;;;;;;;;5017602;28;20159;-75
2022/01/27 01:41:00;;;;;;;15.73;10.48;;;;;;;;;;5014220;28;20076;-73
2022/01/27 01:43:28;;;;;;;16.33;11.85;;;;;;;;;;5032664;28;20048;-74
2022/01/27 01:45:57;;;;;;;18.25;12.05;;;;;;;;;;5036773;28;20083;-74
2022/01/27 01:48:25;;;;;;;16.38;11.07;;;;;;;;;;5034499;28;20104;-76
2022/01/27 01:50:53;;;;;;;15.75;11.55;;;;;;;;;;5034619;28;21067;-76
2022/01/27 01:53:20;;;;;;;17.77;12.82;;;;;;;;;;5034689;28;20389;-74
2022/01/27 01:55:48;;;;;;;18.20;13.35;;;;;;;;;;5032993;28;20568;-76
2022/01/27 01:58:15;;;;;;;15.65;12.02;;;;;;;;;;5033790;28;20575;-74
2022/01/27 02:00:42;;;;;;;16.55;12.45;;;;;;;;;;5033760;28;20044;-74
2022/01/27 02:03:10;;;;;;;17.13;11.32;;;;;;;;;;5037562;28;20051;-76
2022/01/27 02:05:45;;;;;;;15.18;11.50;;;;;;;;;;5035205;28;20147;-74
2022/01/27 02:19:21;;;;;;;15.52;12.45;;;;;;;;;;5034582;28;20068;-75
2022/01/27 02:21:53;;;;;;;15.23;10.80;;;;;;;;;;5034604;28;20056;-75
2022/01/27 02:24:22;;;;;;;14.57;11.77;;;;;;;;;;5007999;28;20047;-74
2022/01/27 02:26:49;;;;;;;14.57;11.63;;;;;;;;;;5033476;28;20578;-74
2022/01/27 02:29:18;;;;;;;16.08;11.70;;;;;;;;;;5028589;28;20177;-76
2022/01/27 02:31:46;;;;;;;13.63;9.85;;;;;;;;;;5029082;28;20471;-74
2022/01/27 02:34:13;;;;;;;13.48;9.65;;;;;;;;;;5033119;28;20055;-75
2022/01/27 02:36:41;;;;;;;12.77;10.20;;;;;;;;;;5032481;28;20056;-73
2022/01/27 02:39:09;;;;;;;13.75;10.52;;;;;;;;;;5015094;28;20045;-75
2022/01/27 02:41:57;;;;;;;14.18;11.63;;;;;;;;;;5028903;28;20044;-74
2022/01/27 02:44:35;;;;;;;13.38;11.13;;;;;;;;;;5029569;28;20139;-75
2022/01/27 02:47:02;;;;;;;18.40;13.15;;;;;;;;;;5014985;28;20128;-75
2022/01/27 02:49:30;;;;;;;14.55;10.88;;;;;;;;;;4976030;28;20137;-74
2022/01/27 02:51:57;;;;;;;11.90;9.30;;;;;;;;;;4976727;28;20080;-74
2022/01/27 02:54:25;;;;;;;13.90;9.95;;;;;;;;;;4991797;28;20403;-73
2022/01/27 02:57:12;;;;;;;11.70;8.93;;;;;;;;;;4994936;28;20042;-74
2022/01/27 02:59:40;;;;;;;15.38;11.95;;;;;;;;;;4996698;28;20420;-74
2022/01/27 03:02:07;;;;;;;14.45;10.57;;;;;;;;;;4998732;28;20572;-76
2022/01/27 03:04:34;;;;;;;15.20;11.65;;;;;;;;;;4997320;28;20053;-74
2022/01/27 03:07:03;;;;;;;13.25;10.00;;;;;;;;;;4995798;28;20241;-74
2022/01/27 03:09:33;;;;;;;14.73;11.57;;;;;;;;;;4995296;28;20601;-75
2022/01/27 03:12:01;;;;;;;13.93;11.38;;;;;;;;;;4994587;28;20101;-76
2022/01/27 03:14:29;;;;;;;14.40;11.35;;;;;;;;;;4994757;28;20104;-75
2022/01/27 03:16:58;;;;;;;16.52;12.63;;;;;;;;;;4995139;28;20042;-75
2022/01/27 03:19:29;;;;;;;12.77;9.02;;;;;;;;;;4988551;28;20053;-73
2022/01/27 03:21:56;;;;;;;12.63;10.48;;;;;;;;;;5037010;28;20128;-72
2022/01/27 03:24:25;;;;;;;19.50;12.70;;;;;;;;;;5035329;28;21239;-74
2022/01/27 03:26:54;;;;;;;16.00;11.63;;;;;;;;;;5038422;28;20046;-75
2022/01/27 03:29:22;;;;;;;14.70;12.55;;;;;;;;;;5039548;28;20041;-73
2022/01/27 03:31:50;;;;;;;15.48;11.90;;;;;;;;;;5039690;28;20148;-73
2022/01/27 03:34:17;;;;;;;14.98;11.48;;;;;;;;;;5020370;28;20128;-73
2022/01/27 03:36:45;;;;;;;16.10;11.88;;;;;;;;;;5040869;28;20077;-72
2022/01/27 03:39:16;;;;;;;14.55;10.52;;;;;;;;;;5022118;28;20044;-73
2022/01/27 03:41:49;;;;;;;16.00;12.98;;;;;;;;;;5040314;28;20448;-73
2022/01/27 03:44:18;;;;;;;17.75;13.75;;;;;;;;;;5042318;28;20147;-73
2022/01/27 03:46:45;;;;;;;17.27;11.93;;;;;;;;;;5038351;28;20071;-74
2022/01/27 03:49:13;;;;;;;18.55;14.27;;;;;;;;;;5035519;28;20044;-74
2022/01/27 03:51:41;;;;;;;15.88;12.52;;;;;;;;;;5040243;28;20087;-75
2022/01/27 03:54:08;;;;;;;17.02;13.68;;;;;;;;;;5042530;28;21305;-74
2022/01/27 03:56:36;;;;;;;19.23;13.77;;;;;;;;;;5026279;28;20049;-74
2022/01/27 03:59:03;;;;;;;15.90;11.90;;;;;;;;;;5042210;28;20037;-74
2022/01/27 04:01:31;;;;;;;15.27;11.57;;;;;;;;;;5042048;28;20049;-75
2022/01/27 04:04:00;;;;;;;17.10;13.75;;;;;;;;;;5041702;28;20036;-74
2022/01/27 04:06:40;;;;;;;16.77;13.63;;;;;;;;;;5020676;28;20099;-73
2022/01/27 04:09:08;;;;;;;16.52;12.98;;;;;;;;;;5036843;28;20068;-75
2022/01/27 04:11:37;;;;;;;17.98;13.18;;;;;;;;;;5034779;28;20037;-76
2022/01/27 04:14:04;;;;;;;15.40;12.10;;;;;;;;;;5039957;28;20666;-75
2022/01/27 04:16:31;;;;;;;15.07;11.25;;;;;;;;;;5037681;28;20068;-75
2022/01/27 04:18:59;;;;;;;19.42;13.82;;;;;;;;;;5019736;28;20120;-74
2022/01/27 04:21:27;;;;;;;16.70;13.27;;;;;;;;;;5036752;28;20057;-73
2022/01/27 04:23:54;;;;;;;16.85;11.98;;;;;;;;;;5037720;28;20160;-75
2022/01/27 04:26:23;;;;;;;18.00;14.02;;;;;;;;;;5038095;28;20595;-73
2022/01/27 04:28:52;;;;;;;17.75;12.38;;;;;;;;;;5035702;28;20403;-76
2022/01/27 04:31:20;;;;;;;16.23;12.13;;;;;;;;;;5033664;28;20111;-73
2022/01/27 04:33:48;;;;;;;17.20;12.77;;;;;;;;;;5036130;28;20045;-74
2022/01/27 04:36:25;;;;;;;17.85;12.63;;;;;;;;;;5036276;28;20141;-74
2022/01/27 04:39:08;;;;;;;21.60;13.88;;;;;;;;;;5036330;28;20281;-75
2022/01/27 04:41:52;;;;;;;16.20;12.43;;;;;;;;;;5035865;28;20064;-74
2022/01/27 04:47:00;;;;;;;17.60;13.95;;;;;;;;;;5037904;28;20629;-74
2022/01/27 04:49:28;;;;;;;15.27;11.68;;;;;;;;;;5034944;28;20508;-75
2022/01/27 04:51:55;;;;;;;14.27;11.23;;;;;;;;;;5014017;28;20136;-73
2022/01/27 04:54:36;;;;;;;18.50;13.52;;;;;;;;;;5034933;28;20048;-73
2022/01/27 04:57:05;;;;;;;17.42;12.88;;;;;;;;;;5035387;28;20124;-75
2022/01/27 04:59:38;;;;;;;18.88;13.88;;;;;;;;;;5027936;28;20055;-75
2022/01/27 05:02:12;;;;;;;19.77;13.52;;;;;;;;;;5040683;28;20049;-76
2022/01/27 05:04:43;;;;;;;17.02;13.57;;;;;;;;;;5014760;28;20050;-73
2022/01/27 05:07:10;;;;;;;20.35;14.98;;;;;;;;;;5034584;28;20135;-75
2022/01/27 05:09:46;;;;;;;19.20;13.93;;;;;;;;;;5033095;28;20056;-74
2022/01/27 05:12:23;;;;;;;20.58;15.30;;;;;;;;;;5035165;28;20045;-76
2022/01/27 05:14:51;;;;;;;16.95;11.55;;;;;;;;;;5034801;28;20226;-74
2022/01/27 05:17:19;;;;;;;20.73;14.48;;;;;;;;;;5034099;28;20069;-73
2022/01/27 05:19:47;;;;;;;19.05;14.75;;;;;;;;;;5015340;28;20040;-74
2022/01/27 05:22:15;;;;;;;23.23;15.27;;;;;;;;;;5017102;28;20151;-73
2022/01/27 05:24:42;;;;;;;17.70;13.30;;;;;;;;;;5035613;28;20575;-74
2022/01/27 05:27:10;;;;;;;21.20;14.88;;;;;;;;;;5036093;28;20987;-74
2022/01/27 05:29:37;;;;;;;20.33;15.43;;;;;;;;;;5033763;28;20045;-73
2022/01/27 05:32:05;;;;;;;21.80;15.27;;;;;;;;;;5024119;28;20072;-74
2022/01/27 05:34:32;;;;;;;21.83;16.20;;;;;;;;;;5033764;28;20119;-75
2022/01/27 05:37:00;;;;;;;18.13;14.52;;;;;;;;;;5037951;28;20107;-73
2022/01/27 05:39:27;;;;;;;20.63;15.77;;;;;;;;;;5035527;28;20713;-75
2022/01/27 05:41:54;;;;;;;20.65;15.20;;;;;;;;;;5017271;28;20052;-74
2022/01/27 05:44:22;;;;;;;19.42;14.35;;;;;;;;;;5032604;28;20064;-74
2022/01/27 05:46:49;;;;;;;21.90;16.50;;;;;;;;;;5037105;28;20045;-75
2022/01/27 05:49:17;;;;;;;21.27;15.25;;;;;;;;;;5034358;28;20070;-76
2022/01/27 05:51:44;;;;;;;19.55;14.80;;;;;;;;;;5035732;28;20419;-75
2022/01/27 05:54:12;;;;;;;22.70;15.70;;;;;;;;;;5030742;28;20144;-76
2022/01/27 05:56:39;;;;;;;19.67;13.75;;;;;;;;;;5026747;28;20045;-73
2022/01/27 05:59:06;;;;;;;17.08;13.20;;;;;;;;;;5030544;28;20061;-76
2022/01/27 06:01:34;;;;;;;18.92;14.27;;;;;;;;;;5033823;28;20420;-75
2022/01/27 06:04:01;;;;;;;22.50;14.93;;;;;;;;;;5016977;28;20047;-74
2022/01/27 06:06:31;;;;;;;18.33;13.07;;;;;;;;;;5032978;28;20052;-75
2022/01/27 06:08:58;;;;;;;20.75;14.95;;;;;;;;;;5031055;28;20064;-76
2022/01/27 06:11:25;;;;;;;22.45;15.30;;;;;;;;;;5027063;28;20049;-74
2022/01/27 06:13:53;;;;;;;19.42;14.95;;;;;;;;;;5036463;28;20060;-76
2022/01/27 06:16:20;;;;;;;22.83;15.32;;;;;;;;;;5038940;28;20033;-77
2022/01/27 06:18:48;;;;;;;17.92;14.25;;;;;;;;;;4999272;28;20463;-75
2022/01/27 06:21:17;;;;;;;24.08;18.58;;;;;;;;;;5029875;28;20112;-74
2022/01/27 06:23:44;;;;;;;20.23;15.93;;;;;;;;;;5012650;28;20468;-74
2022/01/27 06:26:12;;;;;;;18.30;14.60;;;;;;;;;;4970722;28;20530;-76
2022/01/27 06:28:39;;;;;;;16.95;13.40;;;;;;;;;;4991080;28;20213;-75
2022/01/27 06:31:07;;;;;;;23.25;16.02;;;;;;;;;;4974899;28;20038;-74
2022/01/27 06:33:34;;;;;;;25.27;19.05;;;;;;;;;;4977677;28;20101;-74
2022/01/27 06:36:02;;;;;;;23.00;16.50;;;;;;;;;;4985911;28;20052;-76
2022/01/27 06:38:29;;;;;;;23.95;15.82;;;;;;;;;;4975992;28;20132;-73
2022/01/27 06:40:57;;;;;;;18.92;13.55;;;;;;;;;;4974172;28;20072;-74
2022/01/27 06:43:24;;;;;;;22.55;17.02;;;;;;;;;;4990530;28;20064;-76
2022/01/27 06:45:52;;;;;;;21.25;15.23;;;;;;;;;;4993137;28;20057;-77
2022/01/27 06:48:19;;;;;;;20.58;15.00;;;;;;;;;;4972019;28;20561;-76
2022/01/27 06:50:52;;;;;;;21.58;15.32;;;;;;;;;;4990356;28;20486;-76
2022/01/27 06:53:20;;;;;;;25.42;15.82;;;;;;;;;;4991489;28;20470;-74
2022/01/27 06:55:48;;;;;;;21.60;15.98;;;;;;;;;;4995209;28;20100;-75
2022/01/27 06:58:15;;;;;;;24.08;17.73;;;;;;;;;;4952163;28;20581;-75
2022/01/27 07:00:42;;;;;;;22.10;16.10;;;;;;;;;;4955002;28;20061;-73
2022/01/27 07:03:10;;;;;;;24.80;16.30;;;;;;;;;;4959971;28;20042;-74
2022/01/27 07:05:39;;;;;;;24.20;16.02;;;;;;;;;;4975038;28;20078;-76
2022/01/27 07:08:06;;;;;;;22.52;16.08;;;;;;;;;;4973383;28;20908;-77
2022/01/27 07:10:35;;;;;;;22.83;16.02;;;;;;;;;;4972299;28;20073;-75
2022/01/27 07:13:03;;;;;;;18.88;14.02;;;;;;;;;;4957735;28;20058;-74
2022/01/27 07:15:31;;;;;;;21.33;16.08;;;;;;;;;;4972189;28;20094;-75
2022/01/27 07:17:58;;;;;;;21.13;15.88;;;;;;;;;;4951634;28;20138;-74
2022/01/27 07:20:25;;;;;;;21.58;16.70;;;;;;;;;;4954481;28;20543;-75
2022/01/27 07:22:53;;;;;;;23.48;16.05;;;;;;;;;;4942752;28;20054;-76
2022/01/27 07:25:20;;;;;;;21.23;14.93;;;;;;;;;;4959104;28;20367;-74
2022/01/27 07:27:47;;;;;;;20.80;14.80;;;;;;;;;;4957228;28;20584;-74
2022/01/27 07:30:18;;;;;;;20.40;14.45;;;;;;;;;;4988155;28;20145;-75
2022/01/27 07:32:45;;;;;;;19.15;14.65;;;;;;;;;;4993282;28;20128;-76
2022/01/27 07:35:12;;;;;;;21.05;15.02;;;;;;;;;;4997269;28;20208;-75
2022/01/27 07:37:42;;;;;;;19.42;14.10;;;;;;;;;;4986060;28;20505;-75
2022/01/27 07:40:10;;;;;;;19.17;13.65;;;;;;;;;;4992355;28;20808;-75
2022/01/27 07:42:38;;;;;;;20.48;15.20;;;;;;;;;;4979745;28;20533;-77
2022/01/27 07:45:07;;;;;;;20.45;14.57;;;;;;;;;;4999259;28;20132;-76
2022/01/27 07:47:35;;;;;;;19.10;14.07;;;;;;;;;;4996683;28;20057;-74
2022/01/27 07:50:03;;;;;;;21.17;15.57;;;;;;;;;;4996084;28;20054;-76
2022/01/27 07:52:30;;;;;;;20.63;13.90;;;;;;;;;;4995930;28;20488;-76
2022/01/27 07:54:58;;;;;;;23.55;16.42;;;;;;;;;;5005022;28;20049;-75
2022/01/27 07:57:28;;;;;;;22.90;15.60;;;;;;;;;;5034969;28;20067;-74
2022/01/27 07:59:55;;;;;;;22.48;16.40;;;;;;;;;;5030909;28;20409;-74
2022/01/27 08:02:23;;;;;;;21.73;13.90;;;;;;;;;;5039922;28;20372;-74
2022/01/27 08:04:51;;;;;;;21.42;15.43;;;;;;;;;;5016177;28;20072;-75
2022/01/27 08:07:18;;;;;;;21.15;15.10;;;;;;;;;;5036632;28;20425;-74
2022/01/27 08:09:50;;;;;;;;;;;;;;;;;;5036593;28;20140;-74
2022/01/27 08:12:18;;;;;;;20.98;14.90;;;;;;;;;;5037378;28;19959;-76
2022/01/27 08:14:45;;;;;;;20.85;14.90;;;;;;;;;;5034882;28;20056;-77
2022/01/27 08:17:16;;;;;;;25.42;17.10;;;;;;;;;;5013817;28;20037;-75
2022/01/27 08:19:44;;;;;;;22.38;16.77;;;;;;;;;;5032228;28;20044;-76
2022/01/27 08:22:12;;;;;;;24.38;16.52;;;;;;;;;;5015246;28;20509;-76
2022/01/27 08:24:41;;;;;;;20.48;16.08;;;;;;;;;;5018747;28;20091;-74
2022/01/27 08:27:12;;;;;;;32.33;17.83;;;;;;;;;;5032270;28;20487;-74
2022/01/27 08:30:00;;;;;;;24.63;17.52;;;;;;;;;;5034505;28;20508;-72
2022/01/27 08:32:39;;;;;;;24.70;16.65;;;;;;;;;;5037570;28;20037;-72
2022/01/27 08:35:07;;;;;;;19.83;14.27;;;;;;;;;;5045578;28;20121;-72
2022/01/27 08:37:35;;;;;;;25.92;17.35;;;;;;;;;;5041269;28;20051;-74
2022/01/27 08:40:03;;;;;;;26.52;16.30;;;;;;;;;;5039287;28;20520;-72
2022/01/27 08:42:50;;;;;;;26.90;16.15;;;;;;;;;;5017502;28;20040;-73
2022/01/27 08:45:20;;;;;;;26.17;15.65;;;;;;;;;;5020749;28;20041;-74
2022/01/27 08:47:48;;;;;;;31.35;17.27;;;;;;;;;;5043674;28;20041;-74
2022/01/27 08:50:15;;;;;;;19.98;15.25;;;;;;;;;;5032784;28;20614;-73
2022/01/27 08:52:43;;;;;;;30.63;14.02;;;;;;;;;;4948514;28;20050;-74
2022/01/27 08:55:11;;;;;;;19.55;15.00;;;;;;;;;;4986865;28;20045;-74
2022/01/27 08:57:38;;;;;;;23.58;16.02;;;;;;;;;;4984179;28;20058;-74
2022/01/27 09:00:10;;;;;;;27.05;15.63;;;;;;;;;;4990656;28;20068;-75
2022/01/27 09:02:38;;;;;;;30.27;17.98;;;;;;;;;;4969241;28;20046;-73
2022/01/27 09:05:06;;;;;;;22.20;14.07;;;;;;;;;;4989924;28;20709;-74
2022/01/27 09:07:35;;;;;;;23.25;14.80;;;;;;;;;;4985204;28;20051;-74
2022/01/27 09:10:03;;;;;;;41.25;17.98;;;;;;;;;;4982982;28;20121;-74
2022/01/27 09:12:31;;;;;;;26.13;15.50;;;;;;;;;;4987464;28;20080;-75
2022/01/27 09:14:59;;;;;;;29.80;15.93;;;;;;;;;;4972036;28;20074;-75
2022/01/27 09:17:26;;;;;;;31.35;18.23;;;;;;;;;;4974064;28;20065;-74
2022/01/27 09:19:54;;;;;;;25.10;16.95;;;;;;;;;;4994195;28;20130;-73
2022/01/27 09:22:23;;;;;;;25.95;18.25;;;;;;;;;;4987004;28;20525;-76
2022/01/27 09:27:18;;;;;;;26.13;16.52;;;;;;;;;;4992562;28;20051;-74
2022/01/27 09:29:47;;;;;;;26.77;18.35;;;;;;;;;;5007912;28;20052;-75
2022/01/27 09:32:16;;;;;;;25.75;18.15;;;;;;;;;;5027817;28;20049;-74
2022/01/27 09:34:44;;;;;;;26.90;16.40;;;;;;;;;;5028652;28;20124;-74
2022/01/27 09:37:12;;;;;;;28.17;17.77;;;;;;;;;;5024894;28;20372;-75
2022/01/27 09:39:40;;;;;;;22.98;16.52;;;;;;;;;;5045701;28;20041;-74
2022/01/27 09:42:07;;;;;;;23.05;15.32;;;;;;;;;;5025417;28;20053;-74
2022/01/27 09:44:36;;;;;;;26.70;17.08;;;;;;;;;;5051071;28;20102;-77
2022/01/27 09:47:11;;;;;;;21.35;13.23;;;;;;;;;;5047803;28;20128;-72
2022/01/27 09:49:49;;;;;;;21.05;12.98;;;;;;;;;;5044357;28;20130;-72
2022/01/27 09:52:17;;;;;;;22.73;13.50;;;;;;;;;;5030024;28;20084;-74
2022/01/27 09:54:45;;;;;;;29.52;15.88;;;;;;;;;;5048333;28;20035;-76
2022/01/27 09:57:17;;;;;;;25.50;15.48;;;;;;;;;;5045605;28;20080;-75
2022/01/27 09:59:45;;;;;;;25.20;14.77;;;;;;;;;;5043384;28;20049;-72
2022/01/27 10:02:21;;;;;;;38.75;17.45;;;;;;;;;;5027746;28;20082;-73
2022/01/27 10:04:54;;;;;;;30.20;17.95;;;;;;;;;;5001202;28;20057;-72
2022/01/27 10:07:22;;;;;;;24.88;15.93;;;;;;;;;;5000326;28;20057;-73
2022/01/27 10:10:05;;;;;;;28.25;15.45;;;;;;;;;;5003716;28;20228;-75
2022/01/27 10:12:37;;;;;;;36.67;18.02;;;;;;;;;;5001050;28;20038;-74
2022/01/27 10:15:10;;;;;;;50.63;19.30;;;;;;;;;;5003821;28;20100;-73
2022/01/27 10:17:58;;;;;;;31.65;18.48;;;;;;;;;;5016384;28;20056;-74
2022/01/27 10:20:26;;;;;;;25.42;15.27;;;;;;;;;;5007844;28;20069;-73
2022/01/27 10:23:12;;;;;;;32.35;18.13;;;;;;;;;;5002154;28;20069;-72
2022/01/27 10:25:47;;;;;;;27.52;16.25;;;;;;;;;;5008236;28;20457;-73
2022/01/27 10:28:24;;;;;;;36.67;19.23;;;;;;;;;;5016867;28;20072;-73
2022/01/27 10:31:03;;;;;;;32.38;17.45;;;;;;;;;;5004624;28;20136;-73
2022/01/27 10:33:42;;;;;;;28.65;16.40;;;;;;;;;;4989823;28;20644;-74
2022/01/27 10:36:16;;;;;;;27.27;18.10;;;;;;;;;;5019356;28;20061;-74
2022/01/27 10:38:44;;;;;;;76.15;61.67;;;;;;;;;;5043908;28;20091;-74
2022/01/27 10:41:16;;;;;;;;;;;;;;;;;;5046334;28;20041;-74
2022/01/27 10:43:44;;;;;;;27.90;13.35;;;;;;;;;;5049824;28;19975;-74
2022/01/27 10:46:21;;;;;;;26.80;16.33;;;;;;;;;;5049666;28;20037;-72
2022/01/27 10:48:55;;;;;;;32.60;17.98;;;;;;;;;;5048099;28;20098;-74
2022/01/27 10:51:26;;;;;;;31.48;18.95;;;;;;;;;;5048088;28;20041;-72
2022/01/27 10:54:17;;;;;;;28.13;18.88;;;;;;;;;;5037378;28;20087;-72
2022/01/27 10:56:44;;;;;;;30.55;19.02;;;;;;;;;;5046621;28;20132;-75
2022/01/27 10:59:20;;;;;;;45.72;27.15;;;;;;;;;;5046710;28;20096;-74
2022/01/27 11:01:48;;;;;;;30.40;17.90;;;;;;;;;;5045231;28;20099;-74
2022/01/27 11:04:17;;;;;;;33.63;19.73;;;;;;;;;;5040552;28;20140;-74
2022/01/27 11:06:54;;;;;;;29.77;18.63;;;;;;;;;;5047456;28;20104;-74
2022/01/27 11:09:22;;;;;;;27.08;15.55;;;;;;;;;;5016199;28;20053;-74
2022/01/27 11:11:52;;;;;;;30.23;19.05;;;;;;;;;;5019196;28;20100;-74
2022/01/27 11:14:20;;;;;;;26.27;18.15;;;;;;;;;;5019642;28;20096;-74
2022/01/27 11:16:50;;;;;;;22.23;13.77;;;;;;;;;;5022129;28;20091;-74
2022/01/27 11:22:11;;;;;;;28.55;18.25;;;;;;;;;;5014950;28;20038;-73
2022/01/27 11:27:26;;;;;;;12.85;9.43;;;;;;;;;;5018647;28;20080;-75
2022/01/27 11:30:01;;;;;;;22.70;13.70;;;;;;;;;;5019936;28;20038;-73
2022/01/27 11:32:36;;;;;;;27.13;15.88;;;;;;;;;;5023143;28;20064;-73
2022/01/27 11:35:15;;;;;;;34.45;19.80;;;;;;;;;;5018029;28;20056;-75
2022/01/27 11:37:48;;;;;;;26.60;17.23;;;;;;;;;;5015437;28;20052;-74
2022/01/27 11:40:17;;;;;;;19.65;12.73;;;;;;;;;;5022946;28;20067;-73
2022/01/27 11:42:57;;;;;;;26.00;18.03;;;;;;;;;;5026423;28;20450;-73
2022/01/27 11:45:26;;;;;;;27.05;16.83;;;;;;;;;;5026296;28;20133;-76
2022/01/27 11:48:00;;;;;;;25.70;18.15;;;;;;;;;;5010194;28;20060;-73
2022/01/27 11:50:37;;;;;;;33.60;18.05;;;;;;;;;;5014924;28;20073;-75
2022/01/27 11:53:08;;;;;;;36.72;18.40;;;;;;;;;;5022294;28;20850;-74
2022/01/27 11:55:44;;;;;;;32.75;18.95;;;;;;;;;;5024310;28;20584;-74
2022/01/27 11:58:15;;;;;;;24.92;15.88;;;;;;;;;;4998922;28;20042;-74
2022/01/27 12:01:00;;;;;;;37.00;16.45;;;;;;;;;;4992029;28;20061;-72
2022/01/27 12:03:28;;;;;;;47.70;20.45;;;;;;;;;;5006156;28;20068;-75
2022/01/27 12:06:12;;;;;;;25.25;16.27;;;;;;;;;;4991980;28;20201;-74
2022/01/27 12:08:39;;;;;;;32.97;18.20;;;;;;;;;;5020683;28;20096;-72
2022/01/27 12:11:36;;;;;;;31.60;18.00;;;;;;;;;;4999165;28;20092;-74
2022/01/27 12:14:03;;;;;;;25.60;17.10;;;;;;;;;;5019226;28;20096;-72
2022/01/27 12:19:02;;;;;;;26.38;18.00;;;;;;;;;;5011062;28;20477;-72
2022/01/27 12:21:30;;;;;;;27.65;17.75;;;;;;;;;;5002308;28;20132;-72
2022/01/27 12:24:18;;;;;;;31.35;16.88;;;;;;;;;;5016044;28;20133;-73
2022/01/27 12:26:45;;;;;;;27.42;10.55;;;;;;;;;;4996160;28;20613;-72
2022/01/27 12:29:21;;;;;;;48.92;17.88;;;;;;;;;;5028247;28;20100;-75
2022/01/27 12:31:50;;;;;;;26.25;16.75;;;;;;;;;;5049315;28;20059;-75
2022/01/27 12:34:18;;;;;;;28.95;19.17;;;;;;;;;;5040426;28;20346;-74
2022/01/27 12:37:04;;;;;;;23.17;16.17;;;;;;;;;;5035036;28;20508;-77
2022/01/27 12:39:37;;;;;;;29.63;17.77;;;;;;;;;;5051911;28;20156;-76
2022/01/27 12:42:13;;;;;;;28.08;17.13;;;;;;;;;;5048426;28;20124;-72
2022/01/27 12:44:42;;;;;;;30.60;18.67;;;;;;;;;;5059069;28;20073;-73
2022/01/27 12:47:14;;;;;;;25.52;17.35;;;;;;;;;;5056295;28;20507;-74
2022/01/27 12:49:46;;;;;;;28.58;17.00;;;;;;;;;;5038891;28;20531;-73
2022/01/27 12:52:16;;;;;;;26.30;15.95;;;;;;;;;;5050266;28;20095;-75
2022/01/27 12:54:44;;;;;;;24.63;15.93;;;;;;;;;;5051296;28;20043;-73
2022/01/27 12:57:32;;;;;;;28.00;15.05;;;;;;;;;;5051489;28;20040;-73
2022/01/27 13:00:01;;;;;;;25.98;15.05;;;;;;;;;;5053679;28;20064;-74
2022/01/27 13:02:29;;;;;;;30.80;18.67;;;;;;;;;;5030815;28;20509;-73
2022/01/27 13:04:58;;;;;;;23.60;15.75;;;;;;;;;;5049967;28;20048;-75
2022/01/27 13:07:26;;;;;;;23.50;16.10;;;;;;;;;;5043588;28;20098;-74
2022/01/27 13:09:55;;;;;;;21.85;14.25;;;;;;;;;;5063426;28;20041;-73
2022/01/27 13:12:28;;;;;;;23.52;15.50;;;;;;;;;;5021259;28;20071;-74
2022/01/27 13:15:09;;;;;;;24.05;16.05;;;;;;;;;;5014062;28;20048;-74
2022/01/27 13:20:14;;;;;;;28.55;17.75;;;;;;;;;;5055524;28;20135;-73
2022/01/27 13:22:50;;;;;;;29.35;15.70;;;;;;;;;;5033355;28;20059;-75
2022/01/27 13:25:20;;;;;;;25.17;16.13;;;;;;;;;;5030990;28;20125;-73
2022/01/27 13:28:06;;;;;;;14.70;9.35;;;;;;;;;;5047925;28;20060;-73
2022/01/27 13:30:35;;;;;;;27.75;15.05;;;;;;;;;;5044455;28;20043;-74
2022/01/27 13:33:06;;;;;;;28.70;17.13;;;;;;;;;;5052145;28;20063;-73
2022/01/27 13:35:35;;;;;;;33.33;17.50;;;;;;;;;;5032886;28;20049;-73
2022/01/27 13:38:09;;;;;;;26.90;16.30;;;;;;;;;;5031541;28;20116;-72
2022/01/27 13:43:34;;;;;;;26.65;16.80;;;;;;;;;;5038035;28;20072;-74
2022/01/27 13:46:01;;;;;;;23.98;12.60;;;;;;;;;;5030325;28;20496;-76
2022/01/27 13:48:29;;;;;;;25.08;16.00;;;;;;;;;;5032207;28;20191;-73
2022/01/27 13:50:58;;;;;;;28.55;15.27;;;;;;;;;;5021928;28;20038;-73
2022/01/27 13:53:26;;;;;;;29.50;16.52;;;;;;;;;;5048189;28;20045;-72
2022/01/27 13:55:57;;;;;;;29.42;17.48;;;;;;;;;;5054745;28;20067;-75
2022/01/27 13:58:26;;;;;;;24.73;14.55;;;;;;;;;;5076269;28;20068;-73
2022/01/27 14:01:04;;;;;;;36.53;17.70;;;;;;;;;;5065968;28;20044;-73
2022/01/27 14:03:44;;;;;;;25.10;15.93;;;;;;;;;;5062161;28;20070;-73
2022/01/27 14:06:13;;;;;;;24.63;14.85;;;;;;;;;;5048667;28;20364;-74
2022/01/27 14:08:45;;;;;;;21.73;13.63;;;;;;;;;;5047540;28;20041;-73
2022/01/27 14:11:20;;;;;;;23.05;15.77;;;;;;;;;;5043316;28;20040;-74
2022/01/27 14:13:58;;;;;;;24.10;16.17;;;;;;;;;;5050991;28;20041;-73
2022/01/27 14:16:29;;;;;;;22.45;15.38;;;;;;;;;;5043074;28;20102;-74
2022/01/27 14:18:56;;;;;;;20.45;10.82;;;;;;;;;;5046755;28;20045;-73
2022/01/27 14:21:25;;;;;;;19.10;12.93;;;;;;;;;;5039203;28;20041;-73
2022/01/27 14:24:15;;;;;;;24.30;15.05;;;;;;;;;;5027566;28;20493;-74
2022/01/27 14:26:56;;;;;;;21.65;13.88;;;;;;;;;;5052207;28;20040;-75
2022/01/27 14:29:24;;;;;;;21.70;13.93;;;;;;;;;;5058714;28;20055;-73
2022/01/27 14:31:51;;;;;;;26.88;14.35;;;;;;;;;;5045994;28;20052;-73
2022/01/27 14:34:36;;;;;;;22.48;14.77;;;;;;;;;;5053626;28;20489;-73
2022/01/27 14:37:04;;;;;;;25.00;14.57;;;;;;;;;;5045550;28;20608;-73
2022/01/27 14:39:33;;;;;;;21.80;14.88;;;;;;;;;;5039875;28;20052;-73
2022/01/27 14:42:01;;;;;;;21.25;13.27;;;;;;;;;;5033892;28;20493;-75
2022/01/27 14:44:31;;;;;;;15.05;9.93;;;;;;;;;;5033910;28;20082;-73
2022/01/27 14:47:00;;;;;;;22.88;13.02;;;;;;;;;;5030549;28;20059;-75
2022/01/27 14:49:27;;;;;;;24.45;14.45;;;;;;;;;;5036355;28;20534;-74
2022/01/27 14:51:55;;;;;;;24.55;14.15;;;;;;;;;;5034792;28;20045;-74
2022/01/27 14:54:22;;;;;;;20.77;13.00;;;;;;;;;;4994930;28;20124;-73
2022/01/27 14:56:50;;;;;;;20.90;12.57;;;;;;;;;;4995610;28;20072;-74
2022/01/27 14:59:19;;;;;;;19.52;12.27;;;;;;;;;;4995064;28;20444;-74
2022/01/27 15:01:47;;;;;;;23.17;13.93;;;;;;;;;;4979249;28;20042;-72
2022/01/27 15:04:16;;;;;;;24.25;15.45;;;;;;;;;;4993903;28;20057;-74
2022/01/27 15:06:43;;;;;;;18.63;11.35;;;;;;;;;;4990794;28;20054;-75
2022/01/27 15:09:11;;;;;;;33.08;14.93;;;;;;;;;;4991984;28;20174;-73
2022/01/27 15:11:39;;;;;;;26.70;14.50;;;;;;;;;;4979228;28;20045;-73
2022/01/27 15:19:52;;;;;;;22.65;11.00;;;;;;;;;;4980444;28;20052;-73
2022/01/27 15:22:20;;;;;;;25.60;13.00;;;;;;;;;;4994721;28;20050;-73
2022/01/27 15:24:48;;;;;;;23.85;10.82;;;;;;;;;;5009712;28;20190;-73
2022/01/27 15:27:15;;;;;;;23.30;12.13;;;;;;;;;;5031902;28;20106;-74
2022/01/27 15:29:46;;;;;;;23.90;14.70;;;;;;;;;;5041073;28;20053;-73
2022/01/27 15:32:18;;;;;;;22.88;13.48;;;;;;;;;;5040334;28;20103;-73
2022/01/27 15:34:54;;;;;;;35.95;13.75;;;;;;;;;;5044311;28;20088;-73
2022/01/27 15:37:23;;;;;;;23.02;11.95;;;;;;;;;;5044671;28;20075;-73